17:29
Airports
Links
Donate
Help keep this website running!
PayPal
Bitcoin
METAR
EDDE 211720Z 23013KT 9999 OVC017 09/07 Q1010 TEMPO BKN014
Current Weather Conditions at EDDE
MVFR 17:20:00 21-11-17
Altimeter:29.82 hg
Temp:9.0°c 48°f
Dew point:7.0°c 45°f
Wind:13 knots, 15 mph, 7 m/s, from 230°
Visibility:6.21 statute miles
1700(OVC) Overcast
Past METAR reports
MVFR 16:50:00 21-11-17
Altimeter:29.82 hg
Temp:9.0°c 48°f
Dew point:7.0°c 45°f
Wind:13 knots, 15 mph, 7 m/s, from 220°
Visibility:6.21 statute miles
1600(OVC) Overcast
EDDE 211650Z 22013KT 9999 OVC016 09/07 Q1010 TEMPO BKN014
MVFR 16:20:00 21-11-17
Altimeter:29.82 hg
Temp:9.0°c 48°f
Dew point:7.0°c 45°f
Wind:12 knots, 13.8 mph, 6 m/s, from 220°
Visibility:6.21 statute miles
1600(BKN) Broken
EDDE 211620Z 22012KT 9999 BKN016 09/07 Q1010 TEMPO BKN014
MVFR 15:50:00 21-11-17
Altimeter:29.82 hg
Temp:8.0°c 46°f
Dew point:7.0°c 45°f
Wind:12 knots, 13.8 mph, 6 m/s, from 220°
Visibility:6.21 statute miles
1600(BKN) Broken
EDDE 211550Z 22012KT 9999 BKN016 08/07 Q1010 TEMPO BKN014
VFR 15:20:00 21-11-17
Altimeter:29.82 hg
Temp:8.0°c 46°f
Dew point:7.0°c 45°f
Wind:12 knots, 13.8 mph, 6 m/s, from 220°
Visibility:6.21 statute miles
4000(BKN) Broken
1600(SCT) Scattered
No significant weather changes expected within 2 hours.
EDDE 211520Z 22012KT 9999 SCT016 BKN040 08/07 Q1010 NOSIG
VFR 14:50:00 21-11-17
Altimeter:29.82 hg
Temp:8.0°c 46°f
Dew point:7.0°c 45°f
Wind:13 knots, 15 mph, 7 m/s, from 230°
Visibility:6.21 statute miles
4000(BKN) Broken
1600(SCT) Scattered
No significant weather changes expected within 2 hours.
EDDE 211450Z 23013KT 9999 SCT016 BKN040 08/07 Q1010 NOSIG
VFR 14:20:00 21-11-17
Altimeter:29.82 hg
Temp:8.0°c 46°f
Dew point:7.0°c 45°f
Wind:15 knots, 17.3 mph, 8 m/s, from 230°
Visibility:6.21 statute miles
4500(BKN) Broken
2000(SCT) Scattered
No significant weather changes expected within 2 hours.
EDDE 211420Z 23015KT 9999 -RA SCT020 BKN045 08/07 Q1010 NOSIG
TAF
TAF EDDE 211700Z 2118/2218 23014KT 9999 BKN040 PROB30 TEMPO 2118/2202 24015G25KT BKN014 PROB30 TEMPO 2208/2214 24015G25KT
Forecast at EDDE
18:00 21-11-17 to 18:00 22-11-17
Wind:14 Knots from 230°
Visibility:6.21 statute miles
4000BKN Broken
TEMPO 18:00 21-11-17 to 02:00 22-11-17
30%
Wind:15 Knots from 240°
1400BKN Broken
TEMPO 08:00 22-11-17 to 14:00 22-11-17
30%
Wind:15 Knots from 240°